createdAt,value
2017-10-07T00:00:32.466Z,95575.06
2017-10-07T00:03:06.580Z,95574.61
2017-10-07T00:05:39.272Z,95568.55
2017-10-07T00:08:11.199Z,95575.28
2017-10-07T00:10:42.637Z,95577.88
2017-10-07T00:13:13.695Z,95570.48
2017-10-07T00:15:45.144Z,95583.67
2017-10-07T00:18:18.698Z,95577.33
2017-10-07T00:20:52.853Z,95570.28
2017-10-07T00:23:23.845Z,95571.11
2017-10-07T00:25:55.433Z,95571.42
2017-10-07T00:28:26.782Z,95574.48
2017-10-07T00:30:58.133Z,95568.72
2017-10-07T00:33:29.808Z,95566.61
2017-10-07T00:36:02.186Z,95569.81
2017-10-07T00:38:33.632Z,95567.05
2017-10-07T00:41:05.334Z,95557.95
2017-10-07T00:43:37.955Z,95561.31
2017-10-07T00:46:10.373Z,95564.19
2017-10-07T00:48:52.046Z,95564.56
2017-10-07T00:51:24.459Z,95565.31
2017-10-07T00:53:56.762Z,95560.13
2017-10-07T00:56:31.789Z,95556.36
2017-10-07T00:59:03.989Z,95556.75
2017-10-07T01:01:37.181Z,95553.81
2017-10-07T01:04:08.964Z,95545.39
2017-10-07T01:06:41.523Z,95550.49
2017-10-07T01:09:14.206Z,95547.59
2017-10-07T01:11:46.616Z,95545.56
2017-10-07T01:14:17.636Z,95552.88
2017-10-07T01:16:49.970Z,95549.73
2017-10-07T01:19:22.025Z,95540.80
2017-10-07T01:21:53.062Z,95549.58
2017-10-07T01:24:24.904Z,95551.47
2017-10-07T01:26:56.935Z,95542.52
2017-10-07T01:29:29.915Z,95546.20
2017-10-07T01:32:01.319Z,95539.67
2017-10-07T01:34:55.999Z,95538.38
2017-10-07T01:37:27.202Z,95530.22
2017-10-07T01:40:01.187Z,95535.89
2017-10-07T01:42:32.847Z,95528.39
2017-10-07T01:45:04.765Z,95533.59
2017-10-07T01:47:37.992Z,95533.50
2017-10-07T01:50:09.319Z,95536.77
2017-10-07T01:52:40.465Z,95537.95
2017-10-07T01:55:12.574Z,95531.03
2017-10-07T01:57:43.801Z,95529.23
2017-10-07T02:00:15.768Z,95530.30
2017-10-07T02:02:48.212Z,95529.19
2017-10-07T02:05:20.218Z,95530.12
2017-10-07T02:07:52.070Z,95522.81
2017-10-07T02:10:24.229Z,95518.53
2017-10-07T02:12:56.722Z,95519.76
2017-10-07T02:15:28.665Z,95514.02
2017-10-07T02:18:01.287Z,95517.41
2017-10-07T02:20:33.863Z,95514.17
2017-10-07T02:23:05.938Z,95517.91
2017-10-07T02:25:37.538Z,95516.49
2017-10-07T02:28:09.234Z,95514.77
2017-10-07T02:30:40.554Z,95520.34
2017-10-07T02:33:11.841Z,95516.09
2017-10-07T02:35:42.938Z,95519.19
2017-10-07T02:38:14.315Z,95509.55
2017-10-07T02:40:45.562Z,95512.03
2017-10-07T02:43:16.482Z,95512.14
2017-10-07T02:45:48.121Z,95505.34
2017-10-07T02:48:18.971Z,95504.11
2017-10-07T02:50:50.254Z,95494.37
2017-10-07T02:53:21.164Z,95518.28
2017-10-07T02:55:52.019Z,95504.42
2017-10-07T02:58:23.133Z,95502.88
2017-10-07T03:00:54.071Z,95506.81
2017-10-07T03:03:25.001Z,95505.42
2017-10-07T03:05:56.331Z,95504.31
2017-10-07T03:08:32.182Z,95499.95
2017-10-07T03:11:15.785Z,95507.56
2017-10-07T03:13:47.114Z,95505.02
2017-10-07T03:16:18.301Z,95509.34
2017-10-07T03:18:50.344Z,95511.52
2017-10-07T03:21:22.166Z,95517.91
2017-10-07T03:23:53.849Z,95512.84
2017-10-07T03:26:28.346Z,95507.77
2017-10-07T03:29:02.757Z,95513.78
2017-10-07T03:31:38.699Z,95512.70
2017-10-07T03:34:09.799Z,95514.94
2017-10-07T03:36:42.135Z,95516.34
2017-10-07T03:39:13.697Z,95514.39
2017-10-07T03:41:45.757Z,95515.38
2017-10-07T03:44:20.458Z,95509.69
2017-10-07T03:46:52.516Z,95506.78
2017-10-07T03:49:23.688Z,95510.22
2017-10-07T03:51:55.716Z,95511.83
2017-10-07T03:54:26.974Z,95514.16
